sensor_id;sensor_type;location;lat;lon;timestamp;P1;P2;P0
74086;PMS7003;62445;48.406;-4.518;2023-05-16T00:00:16;0.00;0.00;0.00
74086;PMS7003;62445;48.406;-4.518;2023-05-16T00:02:42;0.00;0.00;0.00
74086;PMS7003;62445;48.406;-4.518;2023-05-16T00:05:07;1.00;0.00;0.00
74086;PMS7003;62445;48.406;-4.518;2023-05-16T00:07:38;0.00;0.00;0.00
74086;PMS7003;62445;48.406;-4.518;2023-05-16T00:10:04;0.00;0.00;0.00
74086;PMS7003;62445;48.406;-4.518;2023-05-16T00:12:30;0.00;0.00;0.00
74086;PMS7003;62445;48.406;-4.518;2023-05-16T00:14:56;2.00;0.00;0.00
74086;PMS7003;62445;48.406;-4.518;2023-05-16T00:17:23;1.00;1.00;0.00
74086;PMS7003;62445;48.406;-4.518;2023-05-16T00:19:48;2.00;0.00;0.00
74086;PMS7003;62445;48.406;-4.518;2023-05-16T00:22:23;0.00;0.00;0.00
74086;PMS7003;62445;48.406;-4.518;2023-05-16T00:24:49;1.00;1.00;1.00
74086;PMS7003;62445;48.406;-4.518;2023-05-16T00:27:14;0.00;0.00;0.00
74086;PMS7003;62445;48.406;-4.518;2023-05-16T00:29:40;0.25;0.25;0.00
74086;PMS7003;62445;48.406;-4.518;2023-05-16T00:32:05;1.00;0.00;0.00
74086;PMS7003;62445;48.406;-4.518;2023-05-16T00:34:32;0.00;0.00;0.00
74086;PMS7003;62445;48.406;-4.518;2023-05-16T00:36:58;0.00;0.00;0.00
74086;PMS7003;62445;48.406;-4.518;2023-05-16T00:39:23;0.00;0.00;0.00
74086;PMS7003;62445;48.406;-4.518;2023-05-16T00:41:49;0.00;0.00;0.00
74086;PMS7003;62445;48.406;-4.518;2023-05-16T00:44:14;1.00;0.25;0.00
74086;PMS7003;62445;48.406;-4.518;2023-05-16T00:46:40;0.00;0.00;0.00
74086;PMS7003;62445;48.406;-4.518;2023-05-16T00:49:05;0.00;0.00;0.00
74086;PMS7003;62445;48.406;-4.518;2023-05-16T00:51:32;0.00;0.00;0.00
74086;PMS7003;62445;48.406;-4.518;2023-05-16T00:53:57;0.00;0.00;0.00
74086;PMS7003;62445;48.406;-4.518;2023-05-16T00:56:23;0.25;0.00;0.00
74086;PMS7003;62445;48.406;-4.518;2023-05-16T00:58:49;0.00;0.00;0.00
74086;PMS7003;62445;48.406;-4.518;2023-05-16T01:01:15;0.00;0.00;0.00
74086;PMS7003;62445;48.406;-4.518;2023-05-16T01:03:41;1.00;0.00;0.00
74086;PMS7003;62445;48.406;-4.518;2023-05-16T01:06:10;0.50;0.00;0.00
74086;PMS7003;62445;48.406;-4.518;2023-05-16T01:08:36;0.00;0.00;0.00
74086;PMS7003;62445;48.406;-4.518;2023-05-16T01:11:11;0.00;0.00;0.00
74086;PMS7003;62445;48.406;-4.518;2023-05-16T01:19:51;0.00;0.00;0.00
74086;PMS7003;62445;48.406;-4.518;2023-05-16T01:27:33;0.00;0.00;0.00
74086;PMS7003;62445;48.406;-4.518;2023-05-16T01:30:00;0.00;0.00;0.00
74086;PMS7003;62445;48.406;-4.518;2023-05-16T01:32:25;0.00;0.00;0.00
74086;PMS7003;62445;48.406;-4.518;2023-05-16T01:34:51;0.00;0.00;0.00
74086;PMS7003;62445;48.406;-4.518;2023-05-16T01:40:11;0.00;0.00;0.00
74086;PMS7003;62445;48.406;-4.518;2023-05-16T01:42:41;0.00;0.00;0.00
74086;PMS7003;62445;48.406;-4.518;2023-05-16T01:47:43;1.75;0.00;0.00
74086;PMS7003;62445;48.406;-4.518;2023-05-16T01:50:13;0.00;0.00;0.00
74086;PMS7003;62445;48.406;-4.518;2023-05-16T01:55:10;0.00;0.00;0.00
74086;PMS7003;62445;48.406;-4.518;2023-05-16T01:57:41;0.00;0.00;0.00
74086;PMS7003;62445;48.406;-4.518;2023-05-16T02:00:07;2.00;0.00;0.00
74086;PMS7003;62445;48.406;-4.518;2023-05-16T02:02:33;0.00;0.00;0.00
74086;PMS7003;62445;48.406;-4.518;2023-05-16T02:04:58;0.00;0.00;0.00
74086;PMS7003;62445;48.406;-4.518;2023-05-16T02:07:24;0.00;0.00;0.00
74086;PMS7003;62445;48.406;-4.518;2023-05-16T02:09:49;0.50;0.00;0.00
74086;PMS7003;62445;48.406;-4.518;2023-05-16T02:12:15;0.00;0.00;0.00
74086;PMS7003;62445;48.406;-4.518;2023-05-16T02:14:40;0.00;0.00;0.00
74086;PMS7003;62445;48.406;-4.518;2023-05-16T02:17:06;0.00;0.00;0.00
74086;PMS7003;62445;48.406;-4.518;2023-05-16T02:19:31;0.00;0.00;0.00
74086;PMS7003;62445;48.406;-4.518;2023-05-16T02:21:57;0.00;0.00;0.00
74086;PMS7003;62445;48.406;-4.518;2023-05-16T02:24:22;0.00;0.00;0.00
74086;PMS7003;62445;48.406;-4.518;2023-05-16T02:26:47;0.00;0.00;0.00
74086;PMS7003;62445;48.406;-4.518;2023-05-16T02:29:13;0.00;0.00;0.00
74086;PMS7003;62445;48.406;-4.518;2023-05-16T02:31:40;0.00;0.00;0.00
74086;PMS7003;62445;48.406;-4.518;2023-05-16T02:34:06;1.00;0.00;0.00
74086;PMS7003;62445;48.406;-4.518;2023-05-16T02:36:32;0.00;0.00;0.00
74086;PMS7003;62445;48.406;-4.518;2023-05-16T02:38:59;0.00;0.00;0.00
74086;PMS7003;62445;48.406;-4.518;2023-05-16T02:41:25;0.50;0.00;0.00
74086;PMS7003;62445;48.406;-4.518;2023-05-16T02:43:51;1.00;0.00;0.00
74086;PMS7003;62445;48.406;-4.518;2023-05-16T02:46:27;0.00;0.00;0.00
74086;PMS7003;62445;48.406;-4.518;2023-05-16T02:48:54;0.00;0.00;0.00
74086;PMS7003;62445;48.406;-4.518;2023-05-16T02:51:21;0.00;0.00;0.00
74086;PMS7003;62445;48.406;-4.518;2023-05-16T02:53:47;0.00;0.00;0.00
74086;PMS7003;62445;48.406;-4.518;2023-05-16T02:56:13;0.00;0.00;0.00
74086;PMS7003;62445;48.406;-4.518;2023-05-16T02:58:39;0.00;0.00;0.00
74086;PMS7003;62445;48.406;-4.518;2023-05-16T03:01:04;0.00;0.00;0.00
74086;PMS7003;62445;48.406;-4.518;2023-05-16T03:03:30;0.00;0.00;0.00
74086;PMS7003;62445;48.406;-4.518;2023-05-16T03:05:57;0.00;0.00;0.00
74086;PMS7003;62445;48.406;-4.518;2023-05-16T03:08:23;0.00;0.00;0.00
74086;PMS7003;62445;48.406;-4.518;2023-05-16T03:10:48;0.00;0.00;0.00
74086;PMS7003;62445;48.406;-4.518;2023-05-16T03:13:13;0.00;0.00;0.00
74086;PMS7003;62445;48.406;-4.518;2023-05-16T03:15:39;0.00;0.00;0.00
74086;PMS7003;62445;48.406;-4.518;2023-05-16T03:18:04;0.50;0.00;0.00
74086;PMS7003;62445;48.406;-4.518;2023-05-16T03:20:30;0.00;0.00;0.00
74086;PMS7003;62445;48.406;-4.518;2023-05-16T03:22:55;0.00;0.00;0.00
74086;PMS7003;62445;48.406;-4.518;2023-05-16T03:25:21;0.50;0.00;0.00
74086;PMS7003;62445;48.406;-4.518;2023-05-16T03:27:46;0.00;0.00;0.00
74086;PMS7003;62445;48.406;-4.518;2023-05-16T03:30:11;0.00;0.00;0.00
74086;PMS7003;62445;48.406;-4.518;2023-05-16T03:32:37;0.00;0.00;0.00
74086;PMS7003;62445;48.406;-4.518;2023-05-16T03:35:02;0.00;0.00;0.00
74086;PMS7003;62445;48.406;-4.518;2023-05-16T03:37:28;0.00;0.00;0.00
74086;PMS7003;62445;48.406;-4.518;2023-05-16T03:39:54;0.75;0.00;0.00
74086;PMS7003;62445;48.406;-4.518;2023-05-16T03:42:20;0.00;0.00;0.00
74086;PMS7003;62445;48.406;-4.518;2023-05-16T03:44:45;0.00;0.00;0.00
74086;PMS7003;62445;48.406;-4.518;2023-05-16T03:47:10;0.00;0.00;0.00
74086;PMS7003;62445;48.406;-4.518;2023-05-16T03:49:36;0.00;0.00;0.00
74086;PMS7003;62445;48.406;-4.518;2023-05-16T03:52:04;0.00;0.00;0.00
74086;PMS7003;62445;48.406;-4.518;2023-05-16T03:54:30;0.00;0.00;0.00
74086;PMS7003;62445;48.406;-4.518;2023-05-16T03:56:55;0.00;0.00;0.00
74086;PMS7003;62445;48.406;-4.518;2023-05-16T03:59:21;0.75;0.00;0.00
74086;PMS7003;62445;48.406;-4.518;2023-05-16T04:01:46;0.00;0.00;0.00
74086;PMS7003;62445;48.406;-4.518;2023-05-16T04:04:12;0.00;0.00;0.00
74086;PMS7003;62445;48.406;-4.518;2023-05-16T04:06:38;0.25;0.00;0.00
74086;PMS7003;62445;48.406;-4.518;2023-05-16T04:09:04;0.00;0.00;0.00
74086;PMS7003;62445;48.406;-4.518;2023-05-16T04:11:30;0.00;0.00;0.00
74086;PMS7003;62445;48.406;-4.518;2023-05-16T04:13:56;0.00;0.00;0.00
74086;PMS7003;62445;48.406;-4.518;2023-05-16T04:16:21;0.00;0.00;0.00
74086;PMS7003;62445;48.406;-4.518;2023-05-16T04:18:47;0.25;0.25;0.25
74086;PMS7003;62445;48.406;-4.518;2023-05-16T04:21:13;0.00;0.00;0.00
74086;PMS7003;62445;48.406;-4.518;2023-05-16T04:23:39;0.00;0.00;0.00
74086;PMS7003;62445;48.406;-4.518;2023-05-16T04:26:05;0.00;0.00;0.00
74086;PMS7003;62445;48.406;-4.518;2023-05-16T04:28:31;0.00;0.00;0.00
74086;PMS7003;62445;48.406;-4.518;2023-05-16T04:30:56;0.00;0.00;0.00
74086;PMS7003;62445;48.406;-4.518;2023-05-16T04:33:22;0.00;0.00;0.00
74086;PMS7003;62445;48.406;-4.518;2023-05-16T04:35:47;1.00;0.00;0.00
74086;PMS7003;62445;48.406;-4.518;2023-05-16T04:38:13;0.25;0.00;0.00
74086;PMS7003;62445;48.406;-4.518;2023-05-16T04:40:40;0.00;0.00;0.00
74086;PMS7003;62445;48.406;-4.518;2023-05-16T04:43:08;0.00;0.00;0.00
74086;PMS7003;62445;48.406;-4.518;2023-05-16T04:45:34;0.00;0.00;0.00
74086;PMS7003;62445;48.406;-4.518;2023-05-16T04:48:00;0.00;0.00;0.00
74086;PMS7003;62445;48.406;-4.518;2023-05-16T04:50:25;0.00;0.00;0.00
74086;PMS7003;62445;48.406;-4.518;2023-05-16T04:52:51;0.00;0.00;0.00
74086;PMS7003;62445;48.406;-4.518;2023-05-16T04:55:16;0.00;0.00;0.00
74086;PMS7003;62445;48.406;-4.518;2023-05-16T04:57:42;0.00;0.00;0.00
74086;PMS7003;62445;48.406;-4.518;2023-05-16T05:00:07;0.00;0.00;0.00
74086;PMS7003;62445;48.406;-4.518;2023-05-16T05:02:36;0.00;0.00;0.00
74086;PMS7003;62445;48.406;-4.518;2023-05-16T05:05:02;0.75;0.00;0.00
74086;PMS7003;62445;48.406;-4.518;2023-05-16T05:07:27;0.00;0.00;0.00
74086;PMS7003;62445;48.406;-4.518;2023-05-16T05:09:53;0.00;0.00;0.00
74086;PMS7003;62445;48.406;-4.518;2023-05-16T05:12:20;0.00;0.00;0.00
74086;PMS7003;62445;48.406;-4.518;2023-05-16T05:14:46;0.00;0.00;0.00
74086;PMS7003;62445;48.406;-4.518;2023-05-16T05:17:11;0.00;0.00;0.00
74086;PMS7003;62445;48.406;-4.518;2023-05-16T05:19:37;0.00;0.00;0.00
74086;PMS7003;62445;48.406;-4.518;2023-05-16T05:22:02;0.00;0.00;0.00
74086;PMS7003;62445;48.406;-4.518;2023-05-16T05:24:28;0.00;0.00;0.00
74086;PMS7003;62445;48.406;-4.518;2023-05-16T05:26:53;0.00;0.00;0.00
74086;PMS7003;62445;48.406;-4.518;2023-05-16T05:29:18;0.00;0.00;0.00
74086;PMS7003;62445;48.406;-4.518;2023-05-16T05:31:44;0.00;0.00;0.00
74086;PMS7003;62445;48.406;-4.518;2023-05-16T05:34:09;0.00;0.00;0.00
74086;PMS7003;62445;48.406;-4.518;2023-05-16T05:36:35;1.00;0.00;0.00
74086;PMS7003;62445;48.406;-4.518;2023-05-16T05:39:00;0.00;0.00;0.00
74086;PMS7003;62445;48.406;-4.518;2023-05-16T05:41:25;0.00;0.00;0.00
74086;PMS7003;62445;48.406;-4.518;2023-05-16T05:43:51;0.00;0.00;0.00
74086;PMS7003;62445;48.406;-4.518;2023-05-16T05:46:17;0.00;0.00;0.00
74086;PMS7003;62445;48.406;-4.518;2023-05-16T05:48:42;0.00;0.00;0.00
74086;PMS7003;62445;48.406;-4.518;2023-05-16T05:51:08;0.00;0.00;0.00
74086;PMS7003;62445;48.406;-4.518;2023-05-16T05:53:33;1.00;0.00;0.00
74086;PMS7003;62445;48.406;-4.518;2023-05-16T05:55:59;0.00;0.00;0.00
74086;PMS7003;62445;48.406;-4.518;2023-05-16T05:58:24;1.00;0.00;0.00
74086;PMS7003;62445;48.406;-4.518;2023-05-16T06:00:50;0.00;0.00;0.00
74086;PMS7003;62445;48.406;-4.518;2023-05-16T06:03:15;0.00;0.00;0.00
74086;PMS7003;62445;48.406;-4.518;2023-05-16T06:05:41;0.00;0.00;0.00
74086;PMS7003;62445;48.406;-4.518;2023-05-16T06:08:06;0.00;0.00;0.00
74086;PMS7003;62445;48.406;-4.518;2023-05-16T06:10:32;0.25;0.25;0.00
74086;PMS7003;62445;48.406;-4.518;2023-05-16T06:12:57;1.00;1.00;0.50
74086;PMS7003;62445;48.406;-4.518;2023-05-16T06:15:23;1.00;0.00;0.00
74086;PMS7003;62445;48.406;-4.518;2023-05-16T06:17:50;0.00;0.00;0.00
74086;PMS7003;62445;48.406;-4.518;2023-05-16T06:20:15;0.00;0.00;0.00
74086;PMS7003;62445;48.406;-4.518;2023-05-16T06:22:41;0.00;0.00;0.00
74086;PMS7003;62445;48.406;-4.518;2023-05-16T06:25:06;0.75;0.00;0.00
74086;PMS7003;62445;48.406;-4.518;2023-05-16T06:27:32;0.00;0.00;0.00
74086;PMS7003;62445;48.406;-4.518;2023-05-16T06:29:57;0.00;0.00;0.00
74086;PMS7003;62445;48.406;-4.518;2023-05-16T06:32:22;0.00;0.00;0.00
74086;PMS7003;62445;48.406;-4.518;2023-05-16T06:34:48;1.00;1.00;1.00
74086;PMS7003;62445;48.406;-4.518;2023-05-16T06:37:13;0.75;0.00;0.00
74086;PMS7003;62445;48.406;-4.518;2023-05-16T06:39:39;1.00;0.00;0.00
74086;PMS7003;62445;48.406;-4.518;2023-05-16T06:42:04;1.00;0.00;0.00
74086;PMS7003;62445;48.406;-4.518;2023-05-16T06:44:30;0.00;0.00;0.00
74086;PMS7003;62445;48.406;-4.518;2023-05-16T06:46:56;0.00;0.00;0.00
74086;PMS7003;62445;48.406;-4.518;2023-05-16T06:49:21;1.75;1.00;0.00
74086;PMS7003;62445;48.406;-4.518;2023-05-16T06:51:47;0.00;0.00;0.00
74086;PMS7003;62445;48.406;-4.518;2023-05-16T06:54:13;0.00;0.00;0.00
74086;PMS7003;62445;48.406;-4.518;2023-05-16T06:56:38;0.00;0.00;0.00
74086;PMS7003;62445;48.406;-4.518;2023-05-16T06:59:04;1.00;0.00;0.00
74086;PMS7003;62445;48.406;-4.518;2023-05-16T07:01:29;0.00;0.00;0.00
74086;PMS7003;62445;48.406;-4.518;2023-05-16T07:03:55;0.25;0.25;0.25
74086;PMS7003;62445;48.406;-4.518;2023-05-16T07:06:20;1.00;0.00;0.00
74086;PMS7003;62445;48.406;-4.518;2023-05-16T07:08:46;0.00;0.00;0.00
74086;PMS7003;62445;48.406;-4.518;2023-05-16T07:11:11;0.00;0.00;0.00
74086;PMS7003;62445;48.406;-4.518;2023-05-16T07:13:37;0.00;0.00;0.00
74086;PMS7003;62445;48.406;-4.518;2023-05-16T07:16:02;0.00;0.00;0.00
74086;PMS7003;62445;48.406;-4.518;2023-05-16T07:18:28;0.50;0.50;0.00
74086;PMS7003;62445;48.406;-4.518;2023-05-16T07:20:53;0.00;0.00;0.00
74086;PMS7003;62445;48.406;-4.518;2023-05-16T07:23:19;1.00;0.00;0.00
74086;PMS7003;62445;48.406;-4.518;2023-05-16T07:25:44;0.00;0.00;0.00
74086;PMS7003;62445;48.406;-4.518;2023-05-16T07:28:10;0.00;0.00;0.00
74086;PMS7003;62445;48.406;-4.518;2023-05-16T07:30:35;0.00;0.00;0.00
74086;PMS7003;62445;48.406;-4.518;2023-05-16T07:33:00;0.00;0.00;0.00
74086;PMS7003;62445;48.406;-4.518;2023-05-16T07:35:26;0.00;0.00;0.00
74086;PMS7003;62445;48.406;-4.518;2023-05-16T07:37:51;0.00;0.00;0.00
74086;PMS7003;62445;48.406;-4.518;2023-05-16T07:40:17;0.25;0.25;0.00
74086;PMS7003;62445;48.406;-4.518;2023-05-16T07:42:44;0.50;0.50;0.25
74086;PMS7003;62445;48.406;-4.518;2023-05-16T07:45:10;0.00;0.00;0.00
74086;PMS7003;62445;48.406;-4.518;2023-05-16T07:47:35;0.00;0.00;0.00
74086;PMS7003;62445;48.406;-4.518;2023-05-16T07:50:01;1.00;0.00;0.00
74086;PMS7003;62445;48.406;-4.518;2023-05-16T07:52:26;0.00;0.00;0.00
74086;PMS7003;62445;48.406;-4.518;2023-05-16T07:54:52;0.00;0.00;0.00
74086;PMS7003;62445;48.406;-4.518;2023-05-16T07:57:17;0.00;0.00;0.00
74086;PMS7003;62445;48.406;-4.518;2023-05-16T07:59:43;0.00;0.00;0.00
74086;PMS7003;62445;48.406;-4.518;2023-05-16T08:02:09;2.00;1.00;0.75
74086;PMS7003;62445;48.406;-4.518;2023-05-16T08:04:35;0.00;0.00;0.00
74086;PMS7003;62445;48.406;-4.518;2023-05-16T08:07:00;0.00;0.00;0.00
74086;PMS7003;62445;48.406;-4.518;2023-05-16T08:09:26;1.00;1.00;0.25
74086;PMS7003;62445;48.406;-4.518;2023-05-16T08:11:51;0.00;0.00;0.00
74086;PMS7003;62445;48.406;-4.518;2023-05-16T08:14:17;0.00;0.00;0.00
74086;PMS7003;62445;48.406;-4.518;2023-05-16T08:16:42;0.00;0.00;0.00
74086;PMS7003;62445;48.406;-4.518;2023-05-16T08:19:08;0.00;0.00;0.00
74086;PMS7003;62445;48.406;-4.518;2023-05-16T08:21:34;0.00;0.00;0.00
74086;PMS7003;62445;48.406;-4.518;2023-05-16T08:24:00;0.00;0.00;0.00
74086;PMS7003;62445;48.406;-4.518;2023-05-16T08:26:25;2.00;1.00;0.00
74086;PMS7003;62445;48.406;-4.518;2023-05-16T08:28:51;2.00;0.00;0.00
74086;PMS7003;62445;48.406;-4.518;2023-05-16T08:31:16;1.00;0.75;0.50
74086;PMS7003;62445;48.406;-4.518;2023-05-16T08:33:42;1.25;1.00;1.00
74086;PMS7003;62445;48.406;-4.518;2023-05-16T08:36:10;1.00;1.00;1.00
74086;PMS7003;62445;48.406;-4.518;2023-05-16T08:38:35;1.75;0.25;0.25
74086;PMS7003;62445;48.406;-4.518;2023-05-16T08:41:01;2.00;1.00;1.00
74086;PMS7003;62445;48.406;-4.518;2023-05-16T08:43:26;0.75;0.75;0.75
74086;PMS7003;62445;48.406;-4.518;2023-05-16T08:45:52;0.00;0.00;0.00
74086;PMS7003;62445;48.406;-4.518;2023-05-16T08:48:18;0.75;0.75;0.75
74086;PMS7003;62445;48.406;-4.518;2023-05-16T08:50:47;0.25;0.25;0.00
74086;PMS7003;62445;48.406;-4.518;2023-05-16T08:53:13;0.25;0.25;0.25
74086;PMS7003;62445;48.406;-4.518;2023-05-16T08:55:45;1.00;1.00;1.00
74086;PMS7003;62445;48.406;-4.518;2023-05-16T08:58:12;0.00;0.00;0.00
74086;PMS7003;62445;48.406;-4.518;2023-05-16T09:00:38;0.00;0.00;0.00
74086;PMS7003;62445;48.406;-4.518;2023-05-16T09:03:04;3.00;1.25;1.00
74086;PMS7003;62445;48.406;-4.518;2023-05-16T09:05:30;1.00;1.00;1.00
74086;PMS7003;62445;48.406;-4.518;2023-05-16T09:07:57;0.75;0.75;0.25
74086;PMS7003;62445;48.406;-4.518;2023-05-16T09:10:22;2.00;1.00;1.00
74086;PMS7003;62445;48.406;-4.518;2023-05-16T09:12:47;1.00;1.00;1.00
74086;PMS7003;62445;48.406;-4.518;2023-05-16T09:15:13;1.50;1.50;1.00
74086;PMS7003;62445;48.406;-4.518;2023-05-16T09:17:40;1.00;1.00;1.00
74086;PMS7003;62445;48.406;-4.518;2023-05-16T09:20:08;1.00;1.00;1.00
74086;PMS7003;62445;48.406;-4.518;2023-05-16T09:22:36;1.25;1.25;1.00
74086;PMS7003;62445;48.406;-4.518;2023-05-16T09:25:03;2.75;1.00;1.00
74086;PMS7003;62445;48.406;-4.518;2023-05-16T09:27:29;0.75;0.75;0.75
74086;PMS7003;62445;48.406;-4.518;2023-05-16T09:29:56;1.25;0.75;0.75
74086;PMS7003;62445;48.406;-4.518;2023-05-16T09:32:22;1.50;1.50;1.00
74086;PMS7003;62445;48.406;-4.518;2023-05-16T09:34:48;1.50;1.00;0.50
74086;PMS7003;62445;48.406;-4.518;2023-05-16T09:37:15;1.25;1.25;1.00
74086;PMS7003;62445;48.406;-4.518;2023-05-16T09:39:45;1.00;1.00;1.00
74086;PMS7003;62445;48.406;-4.518;2023-05-16T09:42:12;1.50;1.50;1.50
74086;PMS7003;62445;48.406;-4.518;2023-05-16T09:44:38;2.00;2.00;1.00
74086;PMS7003;62445;48.406;-4.518;2023-05-16T09:47:04;7.75;7.25;3.25
74086;PMS7003;62445;48.406;-4.518;2023-05-16T09:49:30;9.50;7.75;4.00
74086;PMS7003;62445;48.406;-4.518;2023-05-16T09:51:56;6.75;5.00;4.00
74086;PMS7003;62445;48.406;-4.518;2023-05-16T09:54:32;4.75;3.75;3.00
74086;PMS7003;62445;48.406;-4.518;2023-05-16T09:56:59;5.00;5.00;4.25
74086;PMS7003;62445;48.406;-4.518;2023-05-16T09:59:28;5.75;5.25;3.50
74086;PMS7003;62445;48.406;-4.518;2023-05-16T10:02:04;9.00;8.75;5.00
74086;PMS7003;62445;48.406;-4.518;2023-05-16T10:04:32;4.25;4.00;3.00
74086;PMS7003;62445;48.406;-4.518;2023-05-16T10:07:03;5.75;4.00;3.25
74086;PMS7003;62445;48.406;-4.518;2023-05-16T10:09:31;7.50;6.00;5.00
74086;PMS7003;62445;48.406;-4.518;2023-05-16T10:11:57;4.00;4.00;3.00
74086;PMS7003;62445;48.406;-4.518;2023-05-16T10:14:28;3.00;3.00;2.00
74086;PMS7003;62445;48.406;-4.518;2023-05-16T10:16:58;5.00;5.00;3.00
74086;PMS7003;62445;48.406;-4.518;2023-05-16T10:19:24;6.25;4.00;3.00
74086;PMS7003;62445;48.406;-4.518;2023-05-16T10:21:50;5.25;3.00;2.00
74086;PMS7003;62445;48.406;-4.518;2023-05-16T10:24:23;3.00;2.00;1.75
74086;PMS7003;62445;48.406;-4.518;2023-05-16T10:26:55;4.00;2.75;1.75
74086;PMS7003;62445;48.406;-4.518;2023-05-16T10:29:20;5.75;4.00;4.00
74086;PMS7003;62445;48.406;-4.518;2023-05-16T10:31:47;4.50;4.00;3.00
74086;PMS7003;62445;48.406;-4.518;2023-05-16T10:34:13;4.25;4.00;3.00
74086;PMS7003;62445;48.406;-4.518;2023-05-16T10:36:40;6.00;4.00;2.75
74086;PMS7003;62445;48.406;-4.518;2023-05-16T10:39:07;4.50;4.25;3.25
74086;PMS7003;62445;48.406;-4.518;2023-05-16T10:41:33;7.75;4.25;3.25
74086;PMS7003;62445;48.406;-4.518;2023-05-16T10:43:59;4.00;4.00;3.00
74086;PMS7003;62445;48.406;-4.518;2023-05-16T10:46:26;2.00;2.00;1.75
74086;PMS7003;62445;48.406;-4.518;2023-05-16T10:48:55;3.50;3.50;2.50
74086;PMS7003;62445;48.406;-4.518;2023-05-16T10:54:08;2.75;2.75;2.00
74086;PMS7003;62445;48.406;-4.518;2023-05-16T10:56:36;6.25;4.50;4.00
74086;PMS7003;62445;48.406;-4.518;2023-05-16T10:59:02;5.75;3.00;3.00
74086;PMS7003;62445;48.406;-4.518;2023-05-16T11:01:32;3.75;2.50;2.00
74086;PMS7003;62445;48.406;-4.518;2023-05-16T11:06:28;4.25;3.00;2.25
74086;PMS7003;62445;48.406;-4.518;2023-05-16T11:14:34;2.00;2.00;1.50
74086;PMS7003;62445;48.406;-4.518;2023-05-16T11:17:14;3.75;3.50;2.00
74086;PMS7003;62445;48.406;-4.518;2023-05-16T11:22:23;3.75;2.25;1.75
74086;PMS7003;62445;48.406;-4.518;2023-05-16T11:27:23;2.50;2.50;2.00
74086;PMS7003;62445;48.406;-4.518;2023-05-16T11:29:54;1.75;1.75;1.00
74086;PMS7003;62445;48.406;-4.518;2023-05-16T11:32:23;3.00;2.50;2.00
74086;PMS7003;62445;48.406;-4.518;2023-05-16T11:34:49;3.00;3.00;2.00
74086;PMS7003;62445;48.406;-4.518;2023-05-16T11:37:16;5.00;2.75;2.75
74086;PMS7003;62445;48.406;-4.518;2023-05-16T11:39:44;2.25;1.50;1.00
74086;PMS7003;62445;48.406;-4.518;2023-05-16T11:42:09;4.00;3.50;2.75
74086;PMS7003;62445;48.406;-4.518;2023-05-16T11:44:35;7.25;5.00;3.75
74086;PMS7003;62445;48.406;-4.518;2023-05-16T11:47:00;2.25;2.00;1.25
74086;PMS7003;62445;48.406;-4.518;2023-05-16T11:49:29;2.00;2.00;1.50
74086;PMS7003;62445;48.406;-4.518;2023-05-16T11:51:55;2.75;2.75;2.25
74086;PMS7003;62445;48.406;-4.518;2023-05-16T11:54:24;2.75;2.75;1.50
74086;PMS7003;62445;48.406;-4.518;2023-05-16T11:56:50;3.50;2.00;1.00
74086;PMS7003;62445;48.406;-4.518;2023-05-16T11:59:16;4.00;3.25;2.00
74086;PMS7003;62445;48.406;-4.518;2023-05-16T12:01:42;5.75;2.00;1.50
74086;PMS7003;62445;48.406;-4.518;2023-05-16T12:04:08;2.50;2.50;2.25
74086;PMS7003;62445;48.406;-4.518;2023-05-16T12:06:34;3.00;2.50;2.00
74086;PMS7003;62445;48.406;-4.518;2023-05-16T12:09:03;4.00;3.00;2.00
74086;PMS7003;62445;48.406;-4.518;2023-05-16T12:11:38;3.50;2.00;2.00
74086;PMS7003;62445;48.406;-4.518;2023-05-16T12:14:08;5.00;2.00;2.00
74086;PMS7003;62445;48.406;-4.518;2023-05-16T12:16:36;1.50;1.50;1.00
74086;PMS7003;62445;48.406;-4.518;2023-05-16T12:19:06;2.25;2.25;2.00
74086;PMS7003;62445;48.406;-4.518;2023-05-16T12:21:32;3.75;3.00;1.50
74086;PMS7003;62445;48.406;-4.518;2023-05-16T12:23:59;1.75;1.75;1.25
74086;PMS7003;62445;48.406;-4.518;2023-05-16T12:26:25;2.50;1.25;1.00
74086;PMS7003;62445;48.406;-4.518;2023-05-16T12:28:55;4.00;2.00;1.75
74086;PMS7003;62445;48.406;-4.518;2023-05-16T12:31:24;4.00;2.00;2.00
74086;PMS7003;62445;48.406;-4.518;2023-05-16T12:33:54;1.50;1.50;1.25
74086;PMS7003;62445;48.406;-4.518;2023-05-16T12:36:20;3.75;2.00;2.00
74086;PMS7003;62445;48.406;-4.518;2023-05-16T12:38:46;1.75;1.00;1.00
74086;PMS7003;62445;48.406;-4.518;2023-05-16T12:41:21;1.00;1.00;1.00
74086;PMS7003;62445;48.406;-4.518;2023-05-16T12:43:49;2.00;2.00;1.50
74086;PMS7003;62445;48.406;-4.518;2023-05-16T12:46:15;1.00;1.00;1.00
74086;PMS7003;62445;48.406;-4.518;2023-05-16T12:48:41;2.00;2.00;1.00
74086;PMS7003;62445;48.406;-4.518;2023-05-16T12:51:17;3.00;2.25;1.00
74086;PMS7003;62445;48.406;-4.518;2023-05-16T12:53:44;2.00;1.25;1.00
74086;PMS7003;62445;48.406;-4.518;2023-05-16T12:56:12;2.25;2.25;2.00
74086;PMS7003;62445;48.406;-4.518;2023-05-16T12:58:38;1.00;1.00;1.00
74086;PMS7003;62445;48.406;-4.518;2023-05-16T13:01:04;3.00;1.00;1.00
74086;PMS7003;62445;48.406;-4.518;2023-05-16T13:03:30;3.25;1.75;1.75
74086;PMS7003;62445;48.406;-4.518;2023-05-16T13:05:57;2.75;1.00;1.00
74086;PMS7003;62445;48.406;-4.518;2023-05-16T13:08:22;3.00;2.00;2.00
74086;PMS7003;62445;48.406;-4.518;2023-05-16T13:10:48;1.00;1.00;1.00
74086;PMS7003;62445;48.406;-4.518;2023-05-16T13:13:14;1.00;1.00;0.50
74086;PMS7003;62445;48.406;-4.518;2023-05-16T13:15:41;1.25;1.25;1.00
74086;PMS7003;62445;48.406;-4.518;2023-05-16T13:18:06;2.25;2.00;1.25
74086;PMS7003;62445;48.406;-4.518;2023-05-16T13:20:32;2.75;2.00;2.00
74086;PMS7003;62445;48.406;-4.518;2023-05-16T13:22:57;3.00;2.75;1.00
74086;PMS7003;62445;48.406;-4.518;2023-05-16T13:25:23;1.00;1.00;1.00
74086;PMS7003;62445;48.406;-4.518;2023-05-16T13:27:48;1.25;1.25;1.00
74086;PMS7003;62445;48.406;-4.518;2023-05-16T13:30:14;2.00;1.00;1.00
74086;PMS7003;62445;48.406;-4.518;2023-05-16T13:32:40;3.75;2.00;1.00
74086;PMS7003;62445;48.406;-4.518;2023-05-16T13:35:06;2.00;1.25;1.25
74086;PMS7003;62445;48.406;-4.518;2023-05-16T13:37:32;2.00;2.00;2.00
74086;PMS7003;62445;48.406;-4.518;2023-05-16T13:39:58;2.25;2.25;1.25
74086;PMS7003;62445;48.406;-4.518;2023-05-16T13:42:23;1.25;1.25;1.00
74086;PMS7003;62445;48.406;-4.518;2023-05-16T13:44:49;2.50;2.50;2.25
74086;PMS7003;62445;48.406;-4.518;2023-05-16T13:47:14;2.75;1.00;1.00
74086;PMS7003;62445;48.406;-4.518;2023-05-16T13:49:40;1.75;1.75;1.50
74086;PMS7003;62445;48.406;-4.518;2023-05-16T13:52:05;1.50;1.25;1.00
74086;PMS7003;62445;48.406;-4.518;2023-05-16T13:54:31;1.00;1.00;1.00
74086;PMS7003;62445;48.406;-4.518;2023-05-16T13:56:56;3.00;2.00;1.00
74086;PMS7003;62445;48.406;-4.518;2023-05-16T13:59:22;2.00;1.25;1.25
74086;PMS7003;62445;48.406;-4.518;2023-05-16T14:01:47;2.00;2.00;2.00
74086;PMS7003;62445;48.406;-4.518;2023-05-16T14:04:13;1.00;1.00;1.00
74086;PMS7003;62445;48.406;-4.518;2023-05-16T14:06:38;0.75;0.75;0.75
74086;PMS7003;62445;48.406;-4.518;2023-05-16T14:09:04;2.00;1.50;0.75
74086;PMS7003;62445;48.406;-4.518;2023-05-16T14:11:30;2.25;2.00;1.00
74086;PMS7003;62445;48.406;-4.518;2023-05-16T14:13:56;1.50;1.50;1.00
74086;PMS7003;62445;48.406;-4.518;2023-05-16T14:16:21;1.00;1.00;1.00
74086;PMS7003;62445;48.406;-4.518;2023-05-16T14:18:47;2.25;2.25;2.00
74086;PMS7003;62445;48.406;-4.518;2023-05-16T14:21:13;1.00;1.00;1.00
74086;PMS7003;62445;48.406;-4.518;2023-05-16T14:23:38;1.75;1.00;1.00
74086;PMS7003;62445;48.406;-4.518;2023-05-16T14:26:04;1.00;1.00;0.25
74086;PMS7003;62445;48.406;-4.518;2023-05-16T14:28:29;1.00;1.00;0.75
74086;PMS7003;62445;48.406;-4.518;2023-05-16T14:30:56;1.00;1.00;1.00
74086;PMS7003;62445;48.406;-4.518;2023-05-16T14:33:22;1.50;1.00;1.00
74086;PMS7003;62445;48.406;-4.518;2023-05-16T14:35:48;0.75;0.75;0.50
74086;PMS7003;62445;48.406;-4.518;2023-05-16T14:38:14;1.00;1.00;1.00